Time;durP1;ratioP1;P1;durP2;ratioP2;P2;SDS_P1;SDS_P2;PMS_P1;PMS_P2;Temp;Humidity;BMP_temperature;BMP_pressure;BME280_temperature;BME280_humidity;BME280_pressure;Samples;Min_cycle;Max_cycle;Signal;HPM_P1;HPM_P2
2021/09/18 00:02:28;;;;;;;17.57;7.45;;;;;;;12.25;81.13;99816.71;1779520;80;21297;-76
2021/09/18 00:05:33;;;;;;;24.27;7.80;;;;;;;12.23;81.38;99813.30;1778931;80;21380;-76
2021/09/18 00:08:39;;;;;;;26.07;8.68;;;;;;;12.23;81.29;99819.66;1779498;80;21725;-77
2021/09/18 00:11:46;;;;;;;23.50;8.00;;;;;;;12.25;81.11;99822.20;1777998;80;21245;-79
2021/09/18 00:14:52;;;;;;;19.35;7.90;;;;;;;12.25;80.20;99815.34;1779484;80;21713;-76
2021/09/18 00:17:57;;;;;;;15.78;7.85;;;;;;;12.25;79.70;99824.41;1779477;80;21290;-76
2021/09/18 00:21:04;;;;;;;15.75;7.17;;;;;;;12.24;79.63;99821.35;1778072;80;21241;-76
2021/09/18 00:24:10;;;;;;;27.75;8.33;;;;;;;12.24;80.46;99821.35;1779726;80;21258;-76
2021/09/18 00:27:16;;;;;;;25.88;9.55;;;;;;;12.22;81.49;99825.33;1778290;80;21201;-76
2021/09/18 00:30:22;;;;;;;33.45;8.90;;;;;;;12.20;81.89;99824.69;1777045;81;21230;-76
2021/09/18 00:33:28;;;;;;;26.30;8.48;;;;;;;12.17;81.29;99823.18;1776640;81;21300;-76
2021/09/18 00:36:35;;;;;;;22.17;9.25;;;;;;;12.16;80.14;99813.79;1775098;80;21835;-76
2021/09/18 00:39:41;;;;;;;28.15;8.75;;;;;;;12.13;79.31;99818.29;1775103;81;21190;-76
2021/09/18 00:42:47;;;;;;;19.85;8.13;;;;;;;12.11;79.29;99820.39;1775056;81;21769;-76
2021/09/18 00:45:53;;;;;;;34.80;8.38;;;;;;;12.10;80.17;99813.23;1775179;81;21737;-76
2021/09/18 00:49:00;;;;;;;26.48;8.53;;;;;;;12.10;80.42;99803.63;1775139;80;21225;-77
2021/09/18 00:52:08;;;;;;;26.35;9.18;;;;;;;12.10;81.41;99803.10;1775036;80;21201;-77
2021/09/18 00:55:13;;;;;;;33.30;10.32;;;;;;;12.06;82.79;99800.43;1777643;81;21839;-77
2021/09/18 00:58:18;;;;;;;32.50;10.48;;;;;;;12.03;84.31;99798.08;1754653;81;21292;-76
2021/09/18 01:01:24;;;;;;;41.15;11.38;;;;;;;12.07;85.58;99798.53;1775014;81;21832;-77
2021/09/18 01:04:47;;;;;;;26.75;9.93;;;;;;;12.11;86.64;99794.35;1776634;81;21162;-77
2021/09/18 01:07:54;;;;;;;25.23;10.78;;;;;;;12.16;87.34;99800.08;1774952;81;21194;-77
2021/09/18 01:11:00;;;;;;;23.67;10.20;;;;;;;12.22;87.76;99801.49;1775113;80;21733;-77
2021/09/18 01:14:05;;;;;;;24.40;9.80;;;;;;;12.28;88.05;99799.88;1777117;81;21213;-77
2021/09/18 01:17:12;;;;;;;29.65;10.18;;;;;;;12.34;88.09;99799.06;1775743;81;21297;-77
2021/09/18 01:20:19;;;;;;;27.82;8.60;;;;;;;12.36;87.83;99798.85;1775230;81;21189;-77
2021/09/18 01:23:30;;;;;;;25.23;9.18;;;;;;;12.36;87.88;99792.84;1775217;80;21237;-77
2021/09/18 01:26:44;;;;;;;40.75;8.45;;;;;;;12.40;87.99;99788.66;1776265;81;21329;-77
2021/09/18 01:29:51;;;;;;;22.07;8.48;;;;;;;12.42;87.97;99785.20;1777371;80;21241;-77
2021/09/18 01:32:56;;;;;;;19.85;7.97;;;;;;;12.41;88.18;99784.86;1778969;80;21359;-77
2021/09/18 01:36:02;;;;;;;23.95;8.48;;;;;;;12.44;88.57;99779.50;1779751;80;21876;-77
2021/09/18 01:39:08;;;;;;;23.22;7.60;;;;;;;12.47;88.92;99778.59;1779763;80;21166;-77
2021/09/18 01:42:14;;;;;;;25.05;8.28;;;;;;;12.51;89.43;99779.00;1779447;80;21176;-77
2021/09/18 01:45:21;;;;;;;22.52;8.25;;;;;;;12.52;89.57;99776.61;1779791;80;21284;-77
2021/09/18 01:48:27;;;;;;;24.50;8.95;;;;;;;12.51;89.92;99779.88;1780431;80;21289;-77
2021/09/18 01:51:37;;;;;;;21.10;8.28;;;;;;;12.49;90.29;99772.36;1779748;80;21840;-77
2021/09/18 01:54:40;;;;;;;25.20;8.13;;;;;;;12.49;90.81;99768.25;1779471;80;21182;-77
2021/09/18 01:57:45;;;;;;;27.67;9.05;;;;;;;12.49;91.49;99769.62;1778588;80;21859;-78
2021/09/18 02:00:55;;;;;;;24.45;7.50;;;;;;;12.53;92.32;99773.66;1757728;80;21871;-78
2021/09/18 02:04:02;;;;;;;18.67;7.65;;;;;;;12.58;93.06;99772.20;1780296;80;21312;-78
2021/09/18 02:07:07;;;;;;;17.05;8.18;;;;;;;12.64;93.70;99776.88;1779255;80;21931;-78
2021/09/18 02:10:16;;;;;;;26.87;7.72;;;;;;;12.69;94.21;99769.72;1778215;80;21777;-78
2021/09/18 02:13:21;;;;;;;21.80;8.00;;;;;;;12.73;94.54;99767.42;1778566;80;21226;-78
2021/09/18 02:16:28;;;;;;;15.78;7.08;;;;;;;12.78;94.77;99767.66;1779801;80;22351;-77
2021/09/18 02:19:33;;;;;;;17.20;7.40;;;;;;;12.81;95.12;99766.42;1777972;80;21236;-78
2021/09/18 02:22:39;;;;;;;24.07;7.30;;;;;;;12.89;95.57;99754.75;1779808;80;21304;-78
2021/09/18 02:25:45;;;;;;;17.92;7.05;;;;;;;12.96;95.99;99759.72;1779730;80;21182;-78
2021/09/18 02:28:51;;;;;;;19.92;7.87;;;;;;;13.03;96.40;99754.23;1778209;80;21222;-78
2021/09/18 02:31:57;;;;;;;13.88;7.17;;;;;;;13.11;96.77;99757.34;1775814;80;21201;-78
2021/09/18 02:35:04;;;;;;;21.15;7.42;;;;;;;13.16;97.12;99750.70;1778255;80;21175;-78
2021/09/18 02:38:12;;;;;;;17.70;7.83;;;;;;;13.22;97.46;99749.90;1778240;80;21198;-78
2021/09/18 02:41:19;;;;;;;20.27;9.25;;;;;;;13.26;98.04;99744.31;1779581;80;21296;-78
2021/09/18 02:44:25;;;;;;;18.45;8.73;;;;;;;13.29;98.37;99748.87;1778900;80;21332;-78
2021/09/18 02:47:31;;;;;;;26.55;7.70;;;;;;;13.28;98.08;99747.72;1778221;80;21764;-77
2021/09/18 02:50:37;;;;;;;18.55;8.10;;;;;;;13.23;97.70;99740.63;1778174;80;21189;-77
2021/09/18 02:53:43;;;;;;;22.98;9.33;;;;;;;13.19;97.64;99740.16;1779858;80;21793;-76
2021/09/18 02:56:49;;;;;;;20.92;9.63;;;;;;;13.14;97.97;99733.07;1778347;80;21721;-76
2021/09/18 02:59:56;;;;;;;21.17;9.50;;;;;;;13.08;98.40;99738.02;1778167;80;21206;-77
2021/09/18 03:03:01;;;;;;;31.52;10.63;;;;;;;13.06;99.20;99741.48;1779663;80;21761;-76
2021/09/18 03:06:07;;;;;;;28.20;11.48;;;;;;;13.03;100.00;99738.64;1778151;80;21206;-76
2021/09/18 03:09:13;;;;;;;25.12;10.30;;;;;;;13.02;100.00;99734.71;1778410;80;21339;-77
2021/09/18 03:12:18;;;;;;;23.18;11.18;;;;;;;13.03;100.00;99742.77;1779796;80;21170;-77
2021/09/18 03:15:25;;;;;;;22.58;10.88;;;;;;;13.04;100.00;99734.84;1778154;80;21190;-76
2021/09/18 03:18:32;;;;;;;24.47;11.20;;;;;;;13.05;100.00;99740.64;1778023;80;21706;-76
2021/09/18 03:21:38;;;;;;;23.55;10.35;;;;;;;13.08;100.00;99737.15;1779736;80;21297;-77
2021/09/18 03:24:44;;;;;;;35.70;12.98;;;;;;;13.10;100.00;99738.66;1778239;80;21201;-77
2021/09/18 03:27:49;;;;;;;32.65;13.20;;;;;;;13.11;100.00;99747.20;1778250;80;21375;-77
2021/09/18 03:30:55;;;;;;;29.65;14.00;;;;;;;13.12;100.00;99742.02;1779001;80;21324;-77
2021/09/18 03:34:01;;;;;;;27.52;14.10;;;;;;;13.13;100.00;99742.90;1781471;80;21178;-76
2021/09/18 03:37:07;;;;;;;37.88;17.42;;;;;;;13.13;100.00;99743.74;1781755;80;21162;-77
2021/09/18 03:40:16;;;;;;;42.27;19.10;;;;;;;13.13;100.00;99742.90;1781675;80;21831;-76
2021/09/18 03:43:22;;;;;;;55.33;19.35;;;;;;;13.12;100.00;99740.65;1781871;80;21304;-77
2021/09/18 03:46:28;;;;;;;34.65;21.12;;;;;;;13.12;100.00;99743.39;1780322;80;21201;-77
2021/09/18 03:49:33;;;;;;;48.17;22.37;;;;;;;13.12;100.00;99742.55;1780538;80;21367;-77
2021/09/18 03:52:40;;;;;;;54.27;26.87;;;;;;;13.12;99.44;99745.30;1781750;80;21181;-77
2021/09/18 03:55:47;;;;;;;60.33;28.95;;;;;;;13.12;98.75;99746.14;1781447;80;21304;-77
2021/09/18 03:58:53;;;;;;;77.15;30.27;;;;;;;13.10;98.13;99751.01;1781003;80;21832;-77
2021/09/18 04:01:58;;;;;;;54.65;26.23;;;;;;;13.13;97.95;99751.14;1780093;80;21328;-77
2021/09/18 04:05:05;;;;;;;43.98;21.33;;;;;;;13.22;97.96;99754.89;1781687;80;21229;-77
2021/09/18 04:08:15;;;;;;;49.40;21.07;;;;;;;13.35;98.05;99761.45;1781745;80;21302;-77
2021/09/18 04:11:23;;;;;;;41.28;17.95;;;;;;;13.48;98.23;99762.86;1781708;80;21162;-77
2021/09/18 04:14:29;;;;;;;36.05;18.35;;;;;;;13.65;98.32;99763.33;1780246;80;21166;-77
2021/09/18 04:17:35;;;;;;;30.92;15.75;;;;;;;13.78;98.04;99765.56;1780221;80;21178;-77
2021/09/18 04:20:41;;;;;;;24.55;13.28;;;;;;;13.92;97.49;99770.51;1779957;80;21233;-77
2021/09/18 04:23:47;;;;;;;36.05;13.50;;;;;;;14.04;96.76;99769.36;1780134;80;21194;-78
2021/09/18 04:26:53;;;;;;;23.80;10.65;;;;;;;14.11;95.96;99763.84;1781756;80;21855;-78
2021/09/18 04:29:59;;;;;;;21.35;10.08;;;;;;;14.18;95.36;99772.95;1780174;80;21846;-78
2021/09/18 04:33:05;;;;;;;18.05;9.03;;;;;;;14.23;94.75;99767.66;1778341;80;21259;-78
2021/09/18 04:36:10;;;;;;;19.57;10.05;;;;;;;14.26;94.30;99763.11;1778170;80;21300;-78
2021/09/18 04:39:18;;;;;;;21.30;9.40;;;;;;;14.31;94.14;99766.06;1779199;80;21316;-76
2021/09/18 04:42:23;;;;;;;18.77;9.10;;;;;;;14.39;93.91;99769.94;1779611;80;21170;-77
2021/09/18 04:45:29;;;;;;;17.75;8.90;;;;;;;14.46;93.54;99765.82;1779598;80;21318;-77
2021/09/18 04:48:35;;;;;;;23.05;9.08;;;;;;;14.52;93.23;99764.45;1779548;80;21301;-77
2021/09/18 04:51:42;;;;;;;21.25;9.23;;;;;;;14.60;93.07;99763.92;1779716;80;21765;-77
2021/09/18 04:54:49;;;;;;;27.27;10.35;;;;;;;14.66;92.84;99761.14;1779694;80;21729;-77
2021/09/18 04:57:54;;;;;;;17.67;10.03;;;;;;;14.74;92.60;99755.94;1779562;80;21277;-76
2021/09/18 05:01:00;;;;;;;22.62;10.40;;;;;;;14.81;92.29;99751.23;1778122;80;21730;-77
2021/09/18 05:04:06;;;;;;;19.32;10.05;;;;;;;14.91;92.13;99752.16;1779752;80;21308;-77
2021/09/18 05:07:12;;;;;;;20.40;9.45;;;;;;;14.99;91.67;99750.00;1779730;80;21284;-77
2021/09/18 05:10:17;;;;;;;16.32;10.20;;;;;;;15.08;91.29;99740.97;1778229;80;21339;-77
2021/09/18 05:13:24;;;;;;;18.90;9.83;;;;;;;15.17;90.49;99752.58;1778143;80;21266;-76
2021/09/18 05:16:31;;;;;;;20.65;9.78;;;;;;;15.26;89.87;99749.34;1778001;80;21193;-77
2021/09/18 05:19:37;;;;;;;25.85;9.88;;;;;;;15.40;89.49;99747.36;1779376;80;21304;-77
2021/09/18 05:22:43;;;;;;;21.62;9.88;;;;;;;15.60;88.94;99744.47;1779786;80;21605;-77
2021/09/18 05:25:50;;;;;;;23.00;10.15;;;;;;;15.81;87.79;99747.44;1778161;80;21185;-76
2021/09/18 05:28:56;;;;;;;17.60;8.18;;;;;;;16.04;86.84;99750.42;1779856;80;21348;-77
2021/09/18 05:32:04;;;;;;;19.10;9.20;;;;;;;16.27;85.44;99751.14;1779273;80;21320;-77
2021/09/18 05:35:11;;;;;;;21.65;7.80;;;;;;;16.51;84.18;99746.66;1776550;80;21194;-77
2021/09/18 05:38:16;;;;;;;17.95;7.85;;;;;;;16.73;82.48;99737.97;1779692;80;21170;-77
2021/09/18 05:41:21;;;;;;;18.50;7.87;;;;;;;16.91;80.08;99739.34;1778560;80;21304;-77
2021/09/18 05:44:27;;;;;;;11.90;6.70;;;;;;;17.05;78.14;99738.63;1779783;80;21229;-76
2021/09/18 05:47:32;;;;;;;13.05;6.78;;;;;;;17.16;76.25;99745.28;1779122;80;21324;-77
2021/09/18 05:50:40;;;;;;;26.12;7.53;;;;;;;17.29;74.81;99739.59;1778923;80;21344;-77
2021/09/18 05:53:45;;;;;;;18.82;7.03;;;;;;;17.43;73.69;99741.63;1780578;80;21261;-77
2021/09/18 05:56:50;;;;;;;13.43;6.08;;;;;;;17.57;72.94;99730.12;1779878;80;21293;-77
2021/09/18 05:59:55;;;;;;;18.23;6.10;;;;;;;17.78;71.83;99729.30;1779666;80;21357;-77
2021/09/18 06:03:01;;;;;;;11.83;5.33;;;;;;;17.98;70.37;99728.45;1778836;80;21336;-77
2021/09/18 06:06:08;;;;;;;10.48;5.00;;;;;;;18.19;68.66;99731.16;1779818;80;21300;-77
2021/09/18 06:09:14;;;;;;;14.15;4.87;;;;;;;18.37;67.40;99736.58;1779747;80;21304;-77
2021/09/18 06:12:20;;;;;;;18.32;5.55;;;;;;;18.52;65.85;99732.47;1778252;80;21178;-77
2021/09/18 06:15:26;;;;;;;9.90;4.37;;;;;;;18.59;65.19;99735.43;1778219;80;21189;-77
2021/09/18 06:18:33;;;;;;;13.28;5.95;;;;;;;18.65;64.84;99735.83;1778076;80;21209;-77
2021/09/18 06:21:39;;;;;;;12.45;4.65;;;;;;;18.69;64.65;99734.00;1778771;80;21304;-77
2021/09/18 06:24:45;;;;;;;10.35;5.00;;;;;;;18.72;64.71;99731.56;1778190;80;21237;-77
2021/09/18 06:27:51;;;;;;;9.93;4.62;;;;;;;18.77;64.74;99737.25;1780549;80;21261;-77
2021/09/18 06:30:57;;;;;;;22.95;7.75;;;;;;;18.84;64.76;99746.80;1780494;80;21292;-77
2021/09/18 06:34:02;;;;;;;43.83;11.78;;;;;;;18.87;65.03;99737.46;1780357;80;21332;-77
2021/09/18 06:37:08;;;;;;;15.15;7.47;;;;;;;18.89;64.84;99737.20;1777559;81;21797;-77
2021/09/18 06:40:14;;;;;;;16.57;4.85;;;;;;;18.88;64.37;99739.14;1777537;81;21183;-77
2021/09/18 06:43:19;;;;;;;20.80;4.78;;;;;;;18.89;63.98;99741.36;1777533;81;21285;-77
2021/09/18 06:46:25;;;;;;;22.45;5.17;;;;;;;18.88;63.82;99742.45;1777016;81;21388;-78
2021/09/18 06:49:32;;;;;;;15.08;4.37;;;;;;;18.85;61.78;99740.16;1775141;81;21376;-77
2021/09/18 06:52:38;;;;;;;18.75;7.15;;;;;;;18.83;62.18;99738.20;1774956;81;21895;-77
2021/09/18 06:55:46;;;;;;;17.02;8.03;;;;;;;18.81;62.81;99737.58;1775037;81;21289;-77
2021/09/18 06:58:55;;;;;;;18.62;8.88;;;;;;;18.82;62.41;99735.97;1776785;81;21303;-77
2021/09/18 07:02:01;;;;;;;28.35;8.48;;;;;;;18.85;62.73;99734.63;1775497;81;21902;-77
2021/09/18 07:05:07;;;;;;;14.35;7.70;;;;;;;18.90;63.17;99727.25;1776618;81;21292;-77
2021/09/18 07:08:16;;;;;;;19.10;7.50;;;;;;;18.97;63.20;99723.52;1775135;81;21204;-76
2021/09/18 07:11:23;;;;;;;14.47;5.70;;;;;;;19.01;63.95;99725.56;1775143;81;21249;-76
2021/09/18 07:14:28;;;;;;;46.25;28.10;;;;;;;19.09;64.36;99722.38;1775336;81;21964;-76
2021/09/18 07:17:35;;;;;;;33.95;15.05;;;;;;;19.18;64.45;99721.99;1776660;81;21298;-76
2021/09/18 07:20:41;;;;;;;88.42;48.58;;;;;;;19.27;64.32;99717.19;1776758;81;21186;-76
2021/09/18 07:23:47;;;;;;;131.87;64.20;;;;;;;19.41;63.83;99717.73;1776780;81;21186;-76
2021/09/18 07:26:53;;;;;;;20.45;8.13;;;;;;;19.53;63.49;99714.37;1776481;81;21253;-76
2021/09/18 07:29:59;;;;;;;27.85;5.15;;;;;;;19.68;62.72;99711.60;1776424;81;21182;-76
2021/09/18 07:33:06;;;;;;;20.88;4.67;;;;;;;19.76;62.02;99713.95;1775342;81;21860;-77
2021/09/18 07:36:15;;;;;;;8.23;3.35;;;;;;;19.85;61.77;99702.17;1773183;81;21837;-76
2021/09/18 07:39:23;;;;;;;13.30;3.40;;;;;;;20.02;60.41;99702.19;1771167;81;21198;-76
2021/09/18 07:42:28;;;;;;;48.63;5.00;;;;;;;20.12;59.46;99693.17;1770374;81;21262;-76
2021/09/18 07:45:33;;;;;;;9.93;2.90;;;;;;;20.14;59.31;99687.68;1771114;81;21183;-76
2021/09/18 07:48:39;;;;;;;15.10;3.62;;;;;;;20.15;59.87;99688.52;1770991;81;21298;-76
2021/09/18 07:51:44;;;;;;;23.52;9.98;;;;;;;20.17;59.39;99690.48;1771060;81;21217;-76
2021/09/18 07:54:50;;;;;;;18.10;4.08;;;;;;;20.14;59.57;99689.62;1769766;81;21235;-76
2021/09/18 07:57:58;;;;;;;16.23;3.27;;;;;;;20.11;60.26;99688.17;1770271;81;21860;-77
2021/09/18 08:01:06;;;;;;;12.55;3.50;;;;;;;20.12;60.71;99683.46;1770693;81;21673;-78
2021/09/18 08:04:15;;;;;;;9.75;2.65;;;;;;;20.15;61.26;99678.25;1771195;81;21372;-77
2021/09/18 08:07:21;;;;;;;11.85;4.37;;;;;;;20.17;60.69;99678.82;1754492;81;21320;-77
2021/09/18 08:10:28;;;;;;;9.53;2.65;;;;;;;20.16;60.93;99678.53;1771123;81;21289;-77
2021/09/18 08:13:37;;;;;;;13.78;5.50;;;;;;;20.23;60.85;99677.51;1770476;81;21222;-77
2021/09/18 08:16:43;;;;;;;10.20;3.55;;;;;;;20.30;60.04;99675.41;1771892;81;21852;-77
2021/09/18 08:19:50;;;;;;;5.67;2.90;;;;;;;20.38;59.86;99672.20;1770511;81;21332;-77
2021/09/18 08:22:55;;;;;;;13.38;3.67;;;;;;;20.52;58.50;99670.77;1769805;81;21304;-76
2021/09/18 08:26:01;;;;;;;14.38;3.37;;;;;;;20.64;57.45;99663.68;1769194;81;21186;-76
2021/09/18 08:29:08;;;;;;;142.10;75.97;;;;;;;20.68;57.22;99656.52;1771015;81;21175;-77
2021/09/18 08:32:13;;;;;;;26.77;13.62;;;;;;;20.72;56.87;99652.67;1771124;81;21333;-77
2021/09/18 08:35:20;;;;;;;9.30;5.20;;;;;;;20.71;54.62;99647.67;1770563;81;21345;-77
2021/09/18 08:38:27;;;;;;;9.75;4.20;;;;;;;20.67;53.50;99646.50;1770084;80;21372;-77
2021/09/18 08:41:33;;;;;;;27.48;10.58;;;;;;;20.68;53.36;99644.84;1771431;81;21298;-77
2021/09/18 08:44:40;;;;;;;10.75;4.47;;;;;;;20.75;53.07;99642.41;1771373;81;21847;-77
2021/09/18 08:47:47;;;;;;;17.32;3.65;;;;;;;20.86;54.71;99636.73;1771422;81;21305;-77
2021/09/18 08:50:54;;;;;;;8.73;3.35;;;;;;;20.98;53.38;99642.69;1770412;81;21332;-76
2021/09/18 08:54:00;;;;;;;16.62;3.70;;;;;;;21.10;52.75;99645.61;1769662;81;21211;-77
2021/09/18 08:57:07;;;;;;;9.28;3.22;;;;;;;21.25;51.73;99638.53;1769807;81;21549;-77
2021/09/18 09:00:14;;;;;;;12.03;3.77;;;;;;;21.31;50.10;99644.45;1769785;81;21357;-77
2021/09/18 09:03:20;;;;;;;14.58;3.60;;;;;;;21.37;50.37;99639.25;1771230;81;21478;-77
2021/09/18 09:06:27;;;;;;;16.23;3.65;;;;;;;21.47;48.45;99635.17;1771285;81;21186;-77
2021/09/18 09:09:33;;;;;;;11.97;3.95;;;;;;;21.52;47.14;99632.44;1771680;81;21317;-77
2021/09/18 09:12:42;;;;;;;14.98;3.42;;;;;;;21.54;45.40;99630.21;1771244;81;21296;-77
2021/09/18 09:15:48;;;;;;;;;;;;;;;21.54;46.67;99630.77;1772556;81;21753;-77
2021/09/18 09:18:53;;;;;;;14.20;3.87;;;;;;;21.50;49.12;99629.09;1771397;81;20601;-77
2021/09/18 09:22:01;;;;;;;15.68;3.65;;;;;;;21.44;49.64;99635.69;1769645;81;21198;-77
2021/09/18 09:25:07;;;;;;;20.05;7.20;;;;;;;21.42;49.72;99636.52;1771038;81;21352;-77
2021/09/18 09:28:47;;;;;;;33.90;12.47;;;;;;;21.46;50.23;99634.89;1771117;81;21288;-77
2021/09/18 09:31:55;;;;;;;17.80;4.87;;;;;;;21.48;50.23;99631.28;1771310;81;21301;-77
2021/09/18 09:35:02;;;;;;;16.50;4.20;;;;;;;21.52;50.83;99640.78;1748188;81;21912;-77
2021/09/18 09:38:08;;;;;;;24.37;7.30;;;;;;;21.54;49.50;99637.17;1749102;80;21204;-77
2021/09/18 09:41:14;;;;;;;19.90;5.12;;;;;;;21.49;48.59;99637.68;1750331;80;21289;-77
2021/09/18 09:44:33;;;;;;;9.43;3.10;;;;;;;21.42;47.60;99646.25;1750081;80;21824;-77
2021/09/18 09:47:40;;;;;;;11.68;3.92;;;;;;;21.39;46.50;99643.98;1750642;80;21792;-77
2021/09/18 09:50:48;;;;;;;18.27;6.22;;;;;;;21.34;46.71;99642.55;1750921;80;21194;-77
2021/09/18 09:53:55;;;;;;;11.55;4.70;;;;;;;21.33;47.24;99647.28;1751170;80;22596;-77
2021/09/18 09:57:21;;;;;;;13.45;3.58;;;;;;;21.40;47.41;99631.75;1749965;80;21244;-77
2021/09/18 10:00:28;;;;;;;16.45;3.83;;;;;;;21.52;47.61;99644.95;1750802;80;21202;-77
2021/09/18 10:03:34;;;;;;;10.90;3.35;;;;;;;21.64;45.18;99640.06;1781738;80;21840;-77
2021/09/18 10:06:40;;;;;;;22.37;3.55;;;;;;;21.76;44.71;99638.48;1779904;80;21189;-77
2021/09/18 10:09:47;;;;;;;10.70;3.45;;;;;;;21.85;44.60;99641.61;1781321;80;21824;-76
2021/09/18 10:12:53;;;;;;;11.20;3.30;;;;;;;21.94;44.66;99635.84;1780004;80;21324;-77
2021/09/18 10:16:00;;;;;;;12.58;4.00;;;;;;;21.98;45.17;99631.97;1781038;79;21232;-77
2021/09/18 10:19:10;;;;;;;14.87;3.27;;;;;;;21.99;45.65;99631.69;1801872;79;21196;-77
2021/09/18 10:25:44;;;;;;;14.90;3.92;;;;;;;21.83;46.71;99627.97;1812658;79;21153;-77
2021/09/18 10:28:51;;;;;;;16.15;4.80;;;;;;;21.69;48.24;99620.63;1814522;79;21354;-77
2021/09/18 10:32:09;;;;;;;12.10;5.08;;;;;;;21.56;49.97;99612.72;1813617;79;21296;-77
2021/09/18 10:35:19;;;;;;;23.70;6.70;;;;;;;21.52;50.60;99607.39;1811891;79;21835;-77
2021/09/18 10:38:30;;;;;;;20.12;7.87;;;;;;;21.51;50.88;99598.77;1812270;79;21180;-76
2021/09/18 10:41:35;;;;;;;19.73;7.83;;;;;;;21.55;50.38;99597.13;1813146;79;21263;-76
2021/09/18 10:44:57;;;;;;;18.87;7.37;;;;;;;21.62;49.96;99588.55;1788426;79;21185;-77
2021/09/18 10:48:03;;;;;;;17.75;6.97;;;;;;;21.72;49.51;99589.17;1813692;79;21300;-77
2021/09/18 10:51:08;;;;;;;38.65;12.30;;;;;;;21.79;48.46;99582.28;1813524;79;21160;-76
2021/09/18 10:54:18;;;;;;;11.10;6.42;;;;;;;21.85;47.53;99575.64;1813634;79;21205;-77
2021/09/18 10:57:24;;;;;;;20.92;5.78;;;;;;;21.94;47.23;99567.63;1813204;79;21239;-77
2021/09/18 11:00:34;;;;;;;23.02;10.25;;;;;;;22.06;46.83;99561.27;1814021;79;21412;-83
2021/09/18 11:03:55;;;;;;;27.70;15.23;;;;;;;22.20;46.46;99562.50;1813870;79;21303;-78
2021/09/18 11:07:00;;;;;;;11.12;5.22;;;;;;;22.38;46.30;99557.02;1813925;79;21716;-77
2021/09/18 11:10:06;;;;;;;16.05;7.00;;;;;;;22.59;46.11;99557.11;1812071;79;21200;-77
2021/09/18 11:13:22;;;;;;;33.60;15.28;;;;;;;22.78;45.57;99535.14;1812290;79;21223;-77
2021/09/18 11:16:36;;;;;;;59.45;26.82;;;;;;;22.92;45.12;99536.31;1813465;79;21212;-78
2021/09/18 11:19:41;;;;;;;25.65;13.22;;;;;;;23.01;44.73;99537.45;1812342;79;21787;-77
2021/09/18 11:22:47;;;;;;;35.13;12.40;;;;;;;23.11;45.13;99532.44;1811807;79;21216;-77
2021/09/18 11:25:53;;;;;;;66.47;20.00;;;;;;;23.24;43.95;99526.84;1811578;79;21295;-77
2021/09/18 11:28:59;;;;;;;36.48;17.70;;;;;;;23.36;43.94;99521.27;1811238;79;21303;-77
2021/09/18 11:32:25;;;;;;;15.48;5.97;;;;;;;23.44;43.48;99511.52;1789394;79;21177;-77
2021/09/18 11:35:30;;;;;;;22.95;4.87;;;;;;;23.45;43.24;99514.58;1789531;79;21378;-77
2021/09/18 11:38:39;;;;;;;15.48;5.25;;;;;;;23.45;41.24;99512.62;1813604;79;21295;-77
2021/09/18 11:41:45;;;;;;;11.68;5.33;;;;;;;23.50;40.00;99510.94;1810519;79;21334;-77
2021/09/18 11:44:52;;;;;;;26.45;7.03;;;;;;;23.50;38.88;99511.78;1810078;79;21569;-77
2021/09/18 11:48:00;;;;;;;11.20;4.60;;;;;;;23.53;39.13;99511.23;1810006;79;21176;-77
2021/09/18 11:51:08;;;;;;;9.03;3.12;;;;;;;23.58;39.06;99507.59;1811500;79;21295;-77
2021/09/18 11:54:13;;;;;;;14.38;3.45;;;;;;;23.61;38.99;99512.03;1812285;79;21799;-77
2021/09/18 11:57:20;;;;;;;11.55;3.20;;;;;;;23.66;39.03;99511.22;1811767;79;21257;-76
2021/09/18 12:00:27;;;;;;;10.65;3.55;;;;;;;23.67;38.03;99513.75;1811552;79;21216;-77
2021/09/18 12:03:39;;;;;;;22.80;3.85;;;;;;;23.66;38.70;99514.84;1811608;79;21290;-77
2021/09/18 12:06:45;;;;;;;13.10;4.03;;;;;;;23.67;39.49;99517.94;1812432;79;21687;-77
2021/09/18 12:09:50;;;;;;;17.45;4.08;;;;;;;23.65;39.84;99520.16;1812421;79;21184;-77
2021/09/18 12:13:08;;;;;;;11.33;2.67;;;;;;;23.59;40.03;99510.09;1810552;79;21175;-77
2021/09/18 12:16:11;;;;;;;15.75;3.20;;;;;;;23.61;38.91;99513.42;1811688;79;21286;-77
2021/09/18 12:19:18;;;;;;;9.65;2.20;;;;;;;23.58;37.08;99508.42;1810176;79;21153;-77
2021/09/18 12:22:22;;;;;;;7.37;2.33;;;;;;;23.54;34.95;99507.88;1811785;79;21311;-77
2021/09/18 12:25:35;;;;;;;4.75;2.35;;;;;;;23.48;34.85;99505.66;1811978;79;21743;-77
2021/09/18 12:28:40;;;;;;;11.70;2.52;;;;;;;23.45;35.36;99503.41;1812266;79;21294;-77
2021/09/18 12:31:46;;;;;;;10.88;3.12;;;;;;;23.41;35.09;99504.52;1811706;79;21185;-77
2021/09/18 12:34:53;;;;;;;14.28;3.02;;;;;;;23.41;35.28;99506.48;1810041;79;21724;-77
2021/09/18 12:37:59;;;;;;;13.72;3.70;;;;;;;23.41;35.63;99503.13;1811816;79;21149;-77
2021/09/18 12:41:10;;;;;;;13.20;3.42;;;;;;;23.46;35.73;99505.08;1769344;79;21751;-77
2021/09/18 12:44:22;;;;;;;10.58;4.08;;;;;;;23.50;35.75;99508.98;1811371;79;21315;-77
2021/09/18 12:47:32;;;;;;;8.28;3.17;;;;;;;23.52;34.81;99509.53;1812754;79;21256;-77
2021/09/18 12:50:37;;;;;;;10.95;2.80;;;;;;;23.51;34.40;99506.47;1812073;79;21835;-76
2021/09/18 12:53:52;;;;;;;15.80;3.72;;;;;;;23.53;34.94;99503.41;1811790;79;21172;-76
2021/09/18 12:56:58;;;;;;;21.90;4.15;;;;;;;23.54;34.92;99507.31;1810923;79;21212;-77
2021/09/18 13:00:06;;;;;;;8.30;2.80;;;;;;;23.53;34.84;99507.04;1810466;79;21791;-77
2021/09/18 13:03:21;;;;;;;12.53;2.67;;;;;;;23.50;35.14;99510.94;1791660;79;21169;-77
2021/09/18 13:06:28;;;;;;;11.28;2.72;;;;;;;23.48;35.57;99501.47;1789380;79;21256;-78
2021/09/18 13:09:36;;;;;;;13.05;2.50;;;;;;;23.46;36.09;99503.69;1779686;80;21184;-78
2021/09/18 13:12:48;;;;;;;7.55;1.92;;;;;;;23.42;36.49;99499.22;1778272;80;21223;-78
2021/09/18 13:15:55;;;;;;;12.37;2.67;;;;;;;23.39;36.50;99501.75;1777930;80;21212;-78
2021/09/18 13:19:18;;;;;;;17.20;2.20;;;;;;;23.31;36.73;99498.95;1758566;80;21208;-77
2021/09/18 13:22:27;;;;;;;8.03;2.50;;;;;;;23.27;37.23;99497.00;1778155;80;21197;-77
2021/09/18 13:25:32;;;;;;;11.05;2.47;;;;;;;23.23;38.44;99505.65;1779423;80;21862;-77
2021/09/18 13:28:38;;;;;;;8.80;2.72;;;;;;;23.17;39.19;99497.84;1779793;80;21299;-77
2021/09/18 13:31:44;;;;;;;9.13;2.42;;;;;;;23.11;39.49;99485.02;1779741;80;21818;-77
2021/09/18 13:34:50;;;;;;;14.75;3.12;;;;;;;23.07;39.45;99489.48;1779742;80;21311;-77
2021/09/18 13:37:56;;;;;;;8.60;2.30;;;;;;;23.01;39.85;99496.15;1778260;80;21861;-77
2021/09/18 13:41:03;;;;;;;31.62;2.72;;;;;;;22.95;40.33;99493.92;1777935;80;21188;-77
2021/09/18 13:44:08;;;;;;;10.72;2.80;;;;;;;22.89;40.77;99488.90;1773858;80;21835;-77
2021/09/18 13:47:14;;;;;;;10.53;2.83;;;;;;;22.86;41.03;99478.26;1753811;81;21189;-77
2021/09/18 13:50:20;;;;;;;10.20;3.37;;;;;;;22.80;40.63;99489.69;1776881;81;21284;-78
2021/09/18 13:53:25;;;;;;;10.63;4.22;;;;;;;22.69;41.07;99492.47;1776659;81;21224;-77
2021/09/18 13:56:31;;;;;;;10.68;3.35;;;;;;;22.60;41.48;99491.89;1775153;81;21235;-77
2021/09/18 13:59:37;;;;;;;11.57;3.75;;;;;;;22.49;41.84;99486.86;1776651;81;21263;-77
2021/09/18 14:02:42;;;;;;;14.58;4.25;;;;;;;22.39;42.51;99487.64;1776792;81;21184;-77
2021/09/18 14:05:49;;;;;;;13.45;3.52;;;;;;;22.31;43.75;99485.97;1775343;80;21735;-77
2021/09/18 14:08:56;;;;;;;7.58;2.87;;;;;;;22.24;44.61;99485.37;1775606;81;21202;-77
2021/09/18 14:12:02;;;;;;;11.48;3.52;;;;;;;22.17;45.05;99489.25;1775504;80;21244;-77
2021/09/18 14:15:08;;;;;;;26.90;5.05;;;;;;;22.14;44.88;99488.39;1775469;80;21260;-77
2021/09/18 14:18:13;;;;;;;11.25;3.90;;;;;;;22.12;44.78;99480.88;1775936;81;21204;-77
2021/09/18 14:21:19;;;;;;;20.65;3.40;;;;;;;22.10;44.85;99482.22;1775124;80;21199;-78
2021/09/18 14:24:25;;;;;;;7.50;2.70;;;;;;;22.08;45.26;99481.11;1755338;81;21917;-77
2021/09/18 14:27:32;;;;;;;14.30;2.92;;;;;;;22.04;46.86;99478.58;1776732;81;21197;-78
2021/09/18 14:30:39;;;;;;;10.60;3.10;;;;;;;21.97;48.09;99475.19;1775320;81;21192;-78
2021/09/18 14:33:44;;;;;;;17.67;3.83;;;;;;;21.89;48.73;99481.30;1775195;81;21216;-78